Pinetown, South Africa
Current Conditions -  °F | °C
As of 6:00 PM on Sunday 21 Dec 2014 (Local Time) from FALE Reporting Station
Light Rain Light Rain  
Wind Chill: 75°   Ceiling: 1400
Heat Index: 75°   Visibility: 6mi
Dew Point: 70°   Wind: 10mph
Humidity: 83%   Direction: 180°S
Pressure: 29.74"   Gusts: NA
Location:  29.76°S, 30.83°E
Report Text: FALE 211600Z 18009KT 150V210 9999 -RA SCT009 OVC014 24/21 Q1007 NOSIG
Loading
Personal Weather Stations






























Interactive Weather Map New forecast layout! Learn more

10-Day Weather Forecast

Advertisements
Track Severe Weather on mobile